createdAt,value
2022-08-04T00:02:09.761Z,22.88
2022-08-04T00:07:44.240Z,22.93
2022-08-04T00:12:51.533Z,22.83
2022-08-04T00:18:02.515Z,22.80
2022-08-04T00:23:10.938Z,22.86
2022-08-04T00:28:16.658Z,22.65
2022-08-04T00:33:22.114Z,22.60
2022-08-04T00:38:30.351Z,22.41
2022-08-04T00:43:37.111Z,22.43
2022-08-04T00:49:05.835Z,22.64
2022-08-04T00:54:19.172Z,22.35
2022-08-04T00:59:43.321Z,22.22
2022-08-04T01:05:00.405Z,22.20
2022-08-04T01:10:17.791Z,22.22
2022-08-04T01:15:31.832Z,22.18
2022-08-04T01:21:13.246Z,22.02
2022-08-04T01:26:57.457Z,22.09
2022-08-04T01:32:07.896Z,21.99
2022-08-04T01:37:28.692Z,21.86
2022-08-04T01:42:35.955Z,21.99
2022-08-04T01:47:46.705Z,22.13
2022-08-04T01:52:55.201Z,22.19
2022-08-04T01:58:03.219Z,22.18
2022-08-04T02:03:11.567Z,22.39
2022-08-04T02:08:24.877Z,22.26
2022-08-04T02:13:41.749Z,22.21
2022-08-04T02:19:00.851Z,22.20
2022-08-04T02:24:10.937Z,22.23
2022-08-04T02:29:20.748Z,22.27
2022-08-04T02:34:32.967Z,22.23
2022-08-04T02:39:42.440Z,22.27
2022-08-04T02:44:54.386Z,22.16
2022-08-04T02:50:04.200Z,22.19
2022-08-04T02:55:12.550Z,22.16
2022-08-04T03:00:20.213Z,22.15
2022-08-04T03:05:49.960Z,22.05
2022-08-04T03:11:16.748Z,22.02
2022-08-04T03:16:46.319Z,22.06
2022-08-04T03:22:24.747Z,22.10
2022-08-04T03:28:03.473Z,22.19
2022-08-04T03:33:39.095Z,22.24
2022-08-04T03:39:28.741Z,22.26
2022-08-04T03:45:23.537Z,22.20
2022-08-04T03:51:35.429Z,22.25
2022-08-04T03:56:56.064Z,22.31
2022-08-04T04:02:39.392Z,22.32
2022-08-04T04:08:04.361Z,22.35
2022-08-04T04:13:32.886Z,22.38
2022-08-04T04:19:02.649Z,22.49
2022-08-04T04:24:48.246Z,22.62
2022-08-04T04:30:06.372Z,22.79
2022-08-04T04:35:25.627Z,22.89
2022-08-04T04:40:51.830Z,23.11
2022-08-04T04:46:03.358Z,23.50
2022-08-04T04:51:22.019Z,23.97
2022-08-04T04:56:33.492Z,24.34
2022-08-04T05:02:14.490Z,24.52
2022-08-04T05:07:45.747Z,25.25
2022-08-04T05:14:35.309Z,25.49
2022-08-04T05:18:42.246Z,25.75
2022-08-04T05:23:54.403Z,26.43
2022-08-04T05:29:09.523Z,26.95
2022-08-04T05:34:18.752Z,26.59
2022-08-04T05:39:31.035Z,27.00
2022-08-04T05:44:41.943Z,26.89
2022-08-04T05:49:55.618Z,27.31
2022-08-04T05:55:08.306Z,27.50
2022-08-04T06:00:39.737Z,27.71
2022-08-04T06:05:48.588Z,28.34
2022-08-04T06:10:56.600Z,29.42
2022-08-04T06:16:05.564Z,28.34
2022-08-04T06:21:16.360Z,29.25
2022-08-04T06:26:22.793Z,29.65
2022-08-04T06:32:28.711Z,30.02
2022-08-04T06:37:43.113Z,30.44
2022-08-04T06:42:41.685Z,30.27
2022-08-04T06:47:51.584Z,31.31
2022-08-04T06:52:57.979Z,31.92
2022-08-04T06:58:05.176Z,30.70
2022-08-04T07:03:14.489Z,31.47
2022-08-04T07:08:19.867Z,30.80
2022-08-04T07:13:26.538Z,32.59
2022-08-04T07:18:34.464Z,33.25
2022-08-04T07:23:42.802Z,31.07
2022-08-04T07:28:49.582Z,30.56
2022-08-04T07:34:20.617Z,31.26
2022-08-04T07:39:28.743Z,31.06
2022-08-04T07:44:35.108Z,30.94
2022-08-04T07:49:54.764Z,31.45
2022-08-04T07:55:04.045Z,31.10
2022-08-04T08:00:11.008Z,31.73
2022-08-04T08:05:22.339Z,31.60
2022-08-04T08:10:27.889Z,31.49
2022-08-04T08:15:34.142Z,31.65
2022-08-04T08:20:42.483Z,31.37
2022-08-04T08:25:48.085Z,33.19
2022-08-04T08:30:53.028Z,32.78
2022-08-04T08:36:07.583Z,33.29
2022-08-04T08:41:43.188Z,33.82
2022-08-04T08:47:05.099Z,33.61
2022-08-04T08:52:56.626Z,34.48
2022-08-04T08:58:20.241Z,34.98
2022-08-04T09:03:49.430Z,33.81
2022-08-04T09:09:13.939Z,34.79
2022-08-04T09:14:25.505Z,34.33
2022-08-04T09:19:38.842Z,34.57
2022-08-04T09:24:53.899Z,35.48
2022-08-04T09:30:07.732Z,35.42
2022-08-04T09:35:26.327Z,34.60
2022-08-04T09:40:55.453Z,34.13
2022-08-04T09:46:09.461Z,35.23
2022-08-04T09:51:56.859Z,35.36
2022-08-04T09:57:17.198Z,35.80
2022-08-04T10:02:27.240Z,35.38
2022-08-04T10:08:15.112Z,36.08
2022-08-04T10:13:27.960Z,35.60
2022-08-04T10:18:47.379Z,35.44
2022-08-04T10:24:09.250Z,36.08
2022-08-04T10:29:19.459Z,35.05
2022-08-04T10:34:29.546Z,35.83
2022-08-04T10:40:03.885Z,34.72
2022-08-04T10:45:20.032Z,34.85
2022-08-04T10:50:28.786Z,34.97
2022-08-04T10:56:06.922Z,35.42
2022-08-04T11:02:00.034Z,36.21
2022-08-04T11:06:41.427Z,36.43
2022-08-04T11:12:00.447Z,35.36
2022-08-04T11:17:18.514Z,35.91
2022-08-04T11:22:28.772Z,35.83
2022-08-04T11:27:53.075Z,35.31
2022-08-04T11:33:12.382Z,34.95
2022-08-04T11:38:29.158Z,35.83
2022-08-04T11:43:56.526Z,35.01
2022-08-04T11:49:18.387Z,35.20
2022-08-04T11:54:24.583Z,34.80
2022-08-04T11:59:32.104Z,35.63
2022-08-04T12:04:49.951Z,36.05
2022-08-04T12:10:07.779Z,36.23
2022-08-04T12:15:22.644Z,36.52
2022-08-04T12:20:38.348Z,36.47
2022-08-04T12:25:51.211Z,36.22
2022-08-04T12:31:08.425Z,36.20
2022-08-04T12:36:23.543Z,36.80
2022-08-04T12:41:35.996Z,36.02
2022-08-04T12:46:44.626Z,36.38
2022-08-04T12:52:07.980Z,35.87
2022-08-04T12:57:16.223Z,35.13
2022-08-04T13:02:29.097Z,36.30
2022-08-04T13:07:45.585Z,35.69
2022-08-04T13:13:02.699Z,35.73
2022-08-04T13:18:15.482Z,35.52
2022-08-04T13:23:24.464Z,35.48
2022-08-04T13:28:31.041Z,35.39
2022-08-04T13:33:39.176Z,35.87
2022-08-04T13:38:53.452Z,36.02
2022-08-04T13:44:17.445Z,36.05
2022-08-04T13:49:42.810Z,35.68
2022-08-04T13:54:54.917Z,35.89
2022-08-04T14:00:04.541Z,35.25
2022-08-04T14:05:19.052Z,35.37
2022-08-04T14:10:27.253Z,35.74
2022-08-04T14:15:54.783Z,35.76
2022-08-04T14:21:10.887Z,36.78
2022-08-04T14:26:30.211Z,35.32
2022-08-04T14:31:55.261Z,36.10
2022-08-04T14:37:17.721Z,35.92
2022-08-04T14:42:43.657Z,36.53
2022-08-04T14:47:53.339Z,36.51
2022-08-04T14:53:06.068Z,36.21
2022-08-04T14:58:35.798Z,35.70
2022-08-04T15:03:49.981Z,35.93
2022-08-04T15:08:59.677Z,36.17
2022-08-04T15:14:08.749Z,35.99
2022-08-04T15:19:34.491Z,35.55
2022-08-04T15:24:39.419Z,35.63
2022-08-04T15:29:59.260Z,35.93
2022-08-04T15:35:07.046Z,35.68
2022-08-04T15:40:16.395Z,35.57
2022-08-04T15:46:36.981Z,34.97
2022-08-04T15:51:15.172Z,35.22
2022-08-04T15:56:48.542Z,35.15
2022-08-04T16:02:38.690Z,34.28
2022-08-04T16:07:57.451Z,34.49
2022-08-04T16:13:08.449Z,34.96
2022-08-04T16:18:26.207Z,34.77
2022-08-04T16:24:09.681Z,35.00
2022-08-04T16:29:38.125Z,35.06
2022-08-04T16:34:54.317Z,34.99
2022-08-04T16:40:36.983Z,34.74
2022-08-04T16:46:04.715Z,34.72
2022-08-04T16:51:14.698Z,34.68
2022-08-04T16:56:20.762Z,34.72
2022-08-04T17:01:33.496Z,34.62
2022-08-04T17:06:46.448Z,34.55
2022-08-04T17:11:51.525Z,34.78
2022-08-04T17:16:58.908Z,34.42
2022-08-04T17:22:10.428Z,34.27
2022-08-04T17:28:18.962Z,34.11
2022-08-04T17:32:40.765Z,33.97
2022-08-04T17:37:53.065Z,33.97
2022-08-04T17:44:01.069Z,33.72
2022-08-04T17:48:31.163Z,33.48
2022-08-04T17:54:02.618Z,33.39
2022-08-04T17:59:48.247Z,33.34
2022-08-04T18:05:05.996Z,33.07
2022-08-04T18:10:34.817Z,32.93
2022-08-04T18:15:46.926Z,32.94
2022-08-04T18:20:52.274Z,32.86
2022-08-04T18:26:02.207Z,32.69
2022-08-04T18:31:09.647Z,32.56
2022-08-04T18:36:32.890Z,32.64
2022-08-04T18:42:03.852Z,32.35
2022-08-04T18:47:28.986Z,32.03
2022-08-04T18:52:33.308Z,31.87
2022-08-04T18:58:00.791Z,31.58
2022-08-04T19:03:08.088Z,31.43
2022-08-04T19:08:32.875Z,31.24
2022-08-04T19:13:42.857Z,31.24
2022-08-04T19:19:00.544Z,30.60
2022-08-04T19:24:30.267Z,30.21
2022-08-04T19:35:01.030Z,30.22
2022-08-04T19:40:07.247Z,29.97
2022-08-04T19:45:16.121Z,29.81
2022-08-04T19:50:23.925Z,29.78
2022-08-04T19:55:36.715Z,29.76
2022-08-04T20:00:51.346Z,29.61
2022-08-04T20:05:57.552Z,29.42
2022-08-04T20:11:04.413Z,29.14
2022-08-04T20:16:28.687Z,29.01
2022-08-04T20:21:53.780Z,29.06
2022-08-04T20:27:00.717Z,28.77
2022-08-04T20:32:15.572Z,28.67
2022-08-04T20:37:23.217Z,28.34
2022-08-04T20:42:34.252Z,28.32
2022-08-04T20:47:42.004Z,28.24
2022-08-04T20:52:48.083Z,28.15
2022-08-04T20:57:58.888Z,28.00
2022-08-04T21:03:11.403Z,27.86
2022-08-04T21:08:16.354Z,27.61
2022-08-04T21:13:21.280Z,27.43
2022-08-04T21:18:29.865Z,27.44
2022-08-04T21:23:42.041Z,27.37
2022-08-04T21:28:46.945Z,27.32
2022-08-04T21:33:54.724Z,27.24
2022-08-04T21:38:59.714Z,27.15
2022-08-04T21:44:05.179Z,26.90
2022-08-04T21:49:12.754Z,27.00
2022-08-04T21:54:17.968Z,26.82
2022-08-04T21:59:30.449Z,26.78
2022-08-04T22:04:38.409Z,26.72
2022-08-04T22:10:00.023Z,26.35
2022-08-04T22:16:02.727Z,26.38
2022-08-04T22:20:35.327Z,26.13
2022-08-04T22:25:40.280Z,26.02
2022-08-04T22:30:51.955Z,25.86
2022-08-04T22:35:59.729Z,25.93
2022-08-04T22:41:08.424Z,25.77
2022-08-04T22:46:22.089Z,25.66
2022-08-04T22:51:29.554Z,25.60
2022-08-04T22:56:38.378Z,25.68
2022-08-04T23:02:00.495Z,25.78
2022-08-04T23:07:09.793Z,25.73
2022-08-04T23:12:30.441Z,25.79
2022-08-04T23:17:43.825Z,25.81
2022-08-04T23:22:55.932Z,25.71
2022-08-04T23:28:00.955Z,25.70
2022-08-04T23:33:08.998Z,25.44
2022-08-04T23:38:30.443Z,25.30
2022-08-04T23:43:38.540Z,25.41
2022-08-04T23:48:54.855Z,25.46
2022-08-04T23:54:04.782Z,25.23
2022-08-04T23:59:17.854Z,25.05
